Terminal Aerodrome Forecast
Issued by NWS Upton, NY

Home | Current Version | Previous Version | Text Only | Print | Product List | Glossary On
Versions: 1 2 3 4 5 6 7 8 9 10 11 12 13 14 15 16 17 18 19 20 21 22 23 24 25 26 27 28 29 30 31 32 33 34 35
000
FTUS41 KOKX 261700
TAFEWR
TAF
KEWR 261739Z 2618/2724 04016G23KT 2SM -SN BR SCT009 BKN012 OVC019
     FM262200 03018G26KT 1/2SM SN FZFG VV005
     FM270400 35023G33KT 1/4SM +SN FZFG VV003
     FM271400 34022G30KT 1/2SM SN FZFG VV008
     FM272100 34025G36KT 2SM -SN BLSN OVC020=

USA.gov is the U.S. government's official web portal to all federal, state and local government web resources and services.